Time;durP1;ratioP1;P1;durP2;ratioP2;P2;SDS_P1;SDS_P2;PMS_P1;PMS_P2;Temp;Humidity;BMP_temperature;BMP_pressure;BME280_temperature;BME280_humidity;BME280_pressure;Samples;Min_cycle;Max_cycle;Signal;HPM_P1;HPM_P2
2021/04/08 00:01:14;;;;;;;2.45;1.35;;;;;;;1.25;60.30;93204.03;5090305;28;20390;-46
2021/04/08 00:03:39;;;;;;;2.08;1.95;;;;;;;1.26;60.19;93207.47;5089897;28;20436;-47
2021/04/08 00:06:05;;;;;;;0.40;0.40;;;;;;;1.32;59.26;93224.56;5090545;28;20023;-46
2021/04/08 00:08:30;;;;;;;0.30;0.30;;;;;;;1.33;59.68;93231.47;5090360;28;20024;-47
2021/04/08 00:10:56;;;;;;;0.38;0.38;;;;;;;1.18;60.36;93228.25;5090494;28;20058;-46
2021/04/08 00:13:21;;;;;;;0.40;0.40;;;;;;;1.28;59.88;93243.06;5090688;28;20467;-45
2021/04/08 00:15:47;;;;;;;0.35;0.35;;;;;;;1.17;60.59;93238.38;5090344;28;20031;-46
2021/04/08 00:18:12;;;;;;;2.92;2.25;;;;;;;1.07;60.93;93225.50;5089538;28;20093;-48
2021/04/08 00:20:37;;;;;;;0.90;0.90;;;;;;;1.08;61.36;93222.31;5090551;28;20051;-46
2021/04/08 00:23:03;;;;;;;0.90;0.85;;;;;;;1.07;60.06;93231.69;5090474;28;20468;-45
2021/04/08 00:25:29;;;;;;;3.70;1.23;;;;;;;0.88;59.63;93224.50;5090175;28;20024;-45
2021/04/08 00:27:54;;;;;;;0.68;0.68;;;;;;;1.05;59.88;93252.44;5090223;28;20050;-44
2021/04/08 00:30:20;;;;;;;1.20;1.20;;;;;;;0.96;59.81;93250.69;5089938;28;20058;-45
2021/04/08 00:32:46;;;;;;;3.30;1.00;;;;;;;0.95;59.56;93251.19;5089850;28;20030;-46
2021/04/08 00:35:11;;;;;;;1.58;1.48;;;;;;;1.01;59.63;93241.06;5090198;28;20020;-45
2021/04/08 00:37:37;;;;;;;0.65;0.65;;;;;;;1.07;59.61;93231.69;5089872;28;20024;-47
2021/04/08 00:40:10;;;;;;;0.70;0.70;;;;;;;1.02;59.85;93240.56;5089984;28;20020;-45
2021/04/08 00:42:35;;;;;;;4.30;1.85;;;;;;;1.04;59.66;93240.09;5089989;28;20042;-46
2021/04/08 00:45:01;;;;;;;1.10;0.98;;;;;;;1.00;61.06;93237.59;5088573;28;20544;-50
2021/04/08 00:47:26;;;;;;;0.20;0.20;;;;;;;0.82;60.95;93234.63;5079562;28;20047;-47
2021/04/08 00:49:52;;;;;;;0.30;0.30;;;;;;;0.84;61.67;93240.31;5069545;28;20560;-46
2021/04/08 00:52:17;;;;;;;0.95;0.95;;;;;;;0.87;60.71;93239.34;5069012;28;20107;-47
2021/04/08 00:54:42;;;;;;;0.55;0.55;;;;;;;0.91;59.62;93239.84;5068514;28;20040;-46
2021/04/08 00:57:09;;;;;;;0.50;0.50;;;;;;;0.91;60.68;93237.84;5069712;28;20488;-46
2021/04/08 00:59:35;;;;;;;0.60;0.60;;;;;;;0.80;60.53;93232.41;5068128;28;20481;-46
2021/04/08 01:02:00;;;;;;;0.22;0.22;;;;;;;0.84;60.64;93238.34;5069230;28;20044;-49
2021/04/08 01:04:26;;;;;;;0.47;0.47;;;;;;;0.74;62.25;93232.38;5069953;28;20108;-46
2021/04/08 01:06:51;;;;;;;0.50;0.50;;;;;;;0.79;61.13;93236.34;5069613;28;20520;-47
2021/04/08 01:09:17;;;;;;;2.38;1.05;;;;;;;0.85;60.50;93239.06;5069318;28;20497;-47
2021/04/08 01:11:42;;;;;;;0.75;0.75;;;;;;;0.74;60.38;93235.09;5083890;28;20035;-47
2021/04/08 01:14:08;;;;;;;0.30;0.30;;;;;;;0.74;61.35;93237.81;5089615;28;20104;-47
2021/04/08 01:16:48;;;;;;;0.95;0.95;;;;;;;0.73;61.72;93244.50;5088516;28;20712;-46
2021/04/08 01:19:31;;;;;;;0.20;0.20;;;;;;;0.75;61.32;93241.28;5086834;28;20054;-48
2021/04/08 01:22:29;;;;;;;0.60;0.60;;;;;;;0.74;60.91;93235.09;5069229;28;20033;-47
2021/04/08 01:25:16;;;;;;;0.45;0.45;;;;;;;0.68;61.29;93228.16;5043840;28;20044;-47
2021/04/08 01:28:08;;;;;;;0.32;0.32;;;;;;;0.59;60.21;93237.28;5088471;28;20053;-45
2021/04/08 01:30:38;;;;;;;1.33;1.33;;;;;;;0.57;60.85;93222.69;5092155;28;20020;-47
2021/04/08 01:33:04;;;;;;;0.30;0.30;;;;;;;0.53;61.84;93219.47;5083586;28;20034;-46
2021/04/08 01:35:31;;;;;;;0.20;0.20;;;;;;;0.53;61.39;93217.50;5072084;28;20020;-47
2021/04/08 01:38:06;;;;;;;2.40;0.60;;;;;;;0.53;60.07;93214.03;5071730;28;20055;-46
2021/04/08 01:40:32;;;;;;;0.30;0.30;;;;;;;0.57;58.99;93211.84;5073649;28;20020;-46
2021/04/08 01:42:57;;;;;;;0.68;0.68;;;;;;;0.60;59.29;93221.72;5072465;28;20473;-46
2021/04/08 01:45:23;;;;;;;0.82;0.82;;;;;;;0.55;59.10;93215.03;5073079;28;20107;-47
2021/04/08 01:47:50;;;;;;;0.38;0.38;;;;;;;0.52;59.56;93218.00;5071784;28;20024;-45
2021/04/08 01:50:17;;;;;;;0.30;0.30;;;;;;;0.52;59.65;93216.00;5071411;28;20052;-49
2021/04/08 01:52:46;;;;;;;0.40;0.40;;;;;;;0.46;61.38;93223.41;5071587;28;20035;-46
2021/04/08 01:55:11;;;;;;;;;;;;;;;0.41;60.15;93231.56;5072288;28;20469;-46
2021/04/08 01:57:38;;;;;;;0.50;0.50;;;;;;;0.37;59.83;93231.03;5073075;28;19912;-50
2021/04/08 02:00:07;;;;;;;0.20;0.20;;;;;;;0.37;57.69;93237.19;5072540;28;20028;-47
2021/04/08 02:02:33;;;;;;;0.40;0.40;;;;;;;0.46;58.68;93247.09;5072517;28;20614;-47
2021/04/08 02:04:58;;;;;;;0.60;0.60;;;;;;;0.51;59.20;93246.38;5071671;28;20400;-46
2021/04/08 02:07:25;;;;;;;0.20;0.20;;;;;;;0.49;60.06;93249.59;5071589;28;20021;-46
2021/04/08 02:09:51;;;;;;;0.40;0.40;;;;;;;0.55;58.20;93246.91;5071620;28;20501;-46
2021/04/08 02:12:18;;;;;;;0.30;0.30;;;;;;;0.51;57.69;93243.66;5079735;28;20474;-46
2021/04/08 02:14:43;;;;;;;0.30;0.30;;;;;;;0.53;57.97;93260.22;5082793;28;20633;-47
2021/04/08 02:17:11;;;;;;;0.47;0.47;;;;;;;0.47;58.33;93259.47;5079603;28;20095;-48
2021/04/08 02:19:36;;;;;;;0.28;0.28;;;;;;;0.47;58.15;93262.94;5092232;28;20020;-47
2021/04/08 02:22:03;;;;;;;0.40;0.40;;;;;;;0.53;57.34;93260.22;5080152;28;20656;-47
2021/04/08 02:24:30;;;;;;;0.55;0.55;;;;;;;0.60;57.80;93265.19;5091878;28;20495;-47
2021/04/08 02:26:55;;;;;;;0.47;0.47;;;;;;;0.66;56.65;93260.50;5091788;28;20020;-47
2021/04/08 02:29:22;;;;;;;0.20;0.20;;;;;;;0.53;57.56;93255.53;5083188;28;20062;-47
2021/04/08 02:31:48;;;;;;;0.75;0.75;;;;;;;0.55;58.67;93260.47;5082360;28;20134;-48
2021/04/08 02:34:14;;;;;;;0.28;0.28;;;;;;;0.54;59.48;93259.00;5091915;28;20024;-48
2021/04/08 02:36:40;;;;;;;0.75;0.75;;;;;;;0.62;58.23;93263.47;5090914;28;20035;-48
2021/04/08 02:39:09;;;;;;;0.30;0.30;;;;;;;0.60;58.67;93270.63;5090927;28;20020;-46
2021/04/08 02:41:52;;;;;;;0.20;0.20;;;;;;;0.64;58.92;93274.59;5091707;28;20020;-46
2021/04/08 02:44:18;;;;;;;6.18;1.45;;;;;;;0.57;59.37;93266.16;5092256;28;20031;-47
2021/04/08 02:46:43;;;;;;;3.08;1.92;;;;;;;0.64;58.83;93265.69;5087862;28;20090;-46
2021/04/08 02:49:10;;;;;;;0.47;0.47;;;;;;;0.69;58.69;93276.56;5071810;28;20460;-46
2021/04/08 02:51:51;;;;;;;0.75;0.75;;;;;;;0.64;57.65;93273.84;5072012;28;20024;-47
2021/04/08 02:54:41;;;;;;;0.30;0.30;;;;;;;0.66;58.09;93290.41;5070302;28;20512;-47
2021/04/08 02:57:10;;;;;;;0.45;0.45;;;;;;;0.62;58.59;93298.03;5070455;28;20038;-46
2021/04/08 02:59:58;;;;;;;1.25;1.17;;;;;;;0.65;56.67;93299.78;5070573;28;20074;-47
2021/04/08 03:02:27;;;;;;;0.40;0.35;;;;;;;0.54;58.72;93299.75;5065436;28;20586;-48
2021/04/08 03:04:57;;;;;;;0.50;0.50;;;;;;;0.45;57.77;93287.13;5070548;28;20028;-47
2021/04/08 03:07:27;;;;;;;0.52;0.52;;;;;;;0.60;58.21;93314.84;5070156;28;20043;-48
2021/04/08 03:09:53;;;;;;;0.40;0.40;;;;;;;0.63;58.13;93304.94;5071607;28;20027;-48
2021/04/08 03:12:20;;;;;;;0.30;0.30;;;;;;;0.62;58.20;93308.91;5071055;28;20024;-52
2021/04/08 03:14:48;;;;;;;1.95;0.50;;;;;;;0.76;57.46;93321.53;5069889;28;20035;-49
2021/04/08 03:17:16;;;;;;;0.20;0.20;;;;;;;0.63;58.15;93311.13;5069936;28;20544;-51
2021/04/08 03:19:43;;;;;;;0.20;0.20;;;;;;;0.79;57.88;93331.44;5070218;28;20104;-50
2021/04/08 03:22:09;;;;;;;0.65;0.65;;;;;;;0.81;57.60;93331.69;5069883;28;20558;-48
2021/04/08 03:24:36;;;;;;;0.98;0.98;;;;;;;0.73;58.50;93341.56;5069722;28;20020;-52
2021/04/08 03:27:01;;;;;;;0.85;0.85;;;;;;;0.67;59.02;93330.66;5069992;28;20028;-52
2021/04/08 03:29:27;;;;;;;0.57;0.57;;;;;;;0.71;59.32;93346.75;5069217;28;20105;-50
2021/04/08 03:31:53;;;;;;;3.00;2.47;;;;;;;0.72;58.41;93359.81;5071197;28;20064;-52
2021/04/08 03:34:19;;;;;;;0.82;0.82;;;;;;;0.58;59.46;93354.59;5069716;28;20052;-47
2021/04/08 03:36:44;;;;;;;1.50;1.10;;;;;;;0.69;59.68;93365.50;5069433;28;20052;-47
2021/04/08 03:39:10;;;;;;;2.35;1.70;;;;;;;0.59;59.64;93367.66;5069950;28;20043;-48
2021/04/08 03:41:40;;;;;;;1.70;1.17;;;;;;;0.60;60.77;93371.88;5069675;28;20024;-49
2021/04/08 03:44:08;;;;;;;0.28;0.28;;;;;;;0.52;60.71;93372.84;5070390;28;20012;-48
2021/04/08 03:46:37;;;;;;;0.20;0.20;;;;;;;0.53;60.14;93387.88;5070507;28;20020;-47
2021/04/08 03:49:04;;;;;;;0.20;0.20;;;;;;;0.49;60.98;93393.56;5069529;28;20028;-49
2021/04/08 03:51:30;;;;;;;0.30;0.30;;;;;;;0.50;60.89;93391.56;5069413;28;20024;-48
2021/04/08 03:53:56;;;;;;;0.75;0.45;;;;;;;0.45;61.13;93403.91;5069686;28;20032;-47
2021/04/08 03:56:23;;;;;;;1.55;0.77;;;;;;;0.49;60.78;93411.81;5070191;28;20025;-45
2021/04/08 03:58:48;;;;;;;0.98;0.98;;;;;;;0.46;61.39;93410.06;5070301;28;20029;-48
2021/04/08 04:01:15;;;;;;;1.38;0.98;;;;;;;0.52;61.44;93416.28;5069967;28;20024;-48
2021/04/08 04:03:42;;;;;;;0.25;0.25;;;;;;;0.56;61.11;93422.25;5089122;28;20586;-48
2021/04/08 04:06:10;;;;;;;0.40;0.40;;;;;;;0.48;61.31;93408.34;5089071;28;20047;-48
2021/04/08 04:08:36;;;;;;;0.45;0.45;;;;;;;0.56;61.05;93419.53;5089052;28;20031;-47
2021/04/08 04:11:01;;;;;;;0.30;0.30;;;;;;;0.35;62.31;93390.97;5089461;28;20028;-48
2021/04/08 04:13:28;;;;;;;4.95;0.77;;;;;;;0.62;62.79;93431.16;5088859;28;20558;-47
2021/04/08 04:15:54;;;;;;;1.70;1.60;;;;;;;0.55;62.45;93412.59;5090303;28;20111;-48
2021/04/08 04:18:19;;;;;;;1.00;1.00;;;;;;;0.73;62.60;93426.53;5089318;28;20047;-46
2021/04/08 04:20:45;;;;;;;0.40;0.40;;;;;;;0.86;61.76;93439.69;5090064;28;20389;-47
2021/04/08 04:23:11;;;;;;;0.50;0.50;;;;;;;0.96;61.55;93435.53;5090640;28;20024;-47
2021/04/08 04:25:37;;;;;;;0.77;0.77;;;;;;;0.91;60.63;93427.38;5090604;28;20043;-47
2021/04/08 04:28:02;;;;;;;0.20;0.20;;;;;;;0.91;60.31;93441.69;5090429;28;20028;-48
2021/04/08 04:30:28;;;;;;;0.40;0.40;;;;;;;0.93;59.75;93438.50;5089962;28;20488;-48
2021/04/08 04:32:54;;;;;;;0.57;0.57;;;;;;;0.93;60.66;93441.97;5090085;28;20026;-49
2021/04/08 04:35:20;;;;;;;0.30;0.30;;;;;;;1.08;58.63;93444.50;5090374;28;20028;-47
2021/04/08 04:37:46;;;;;;;0.20;0.20;;;;;;;1.05;59.33;93440.78;5090244;28;20031;-48
2021/04/08 04:40:12;;;;;;;1.33;0.95;;;;;;;0.98;59.22;93435.03;5089935;28;20119;-49
2021/04/08 04:42:37;;;;;;;0.20;0.20;;;;;;;1.11;58.11;93444.25;5089818;28;20032;-47
2021/04/08 04:45:05;;;;;;;0.38;0.38;;;;;;;1.15;58.79;93449.47;5089759;28;20036;-50
2021/04/08 04:47:30;;;;;;;0.50;0.50;;;;;;;1.24;57.37;93451.97;5078966;28;20028;-48
2021/04/08 04:49:56;;;;;;;0.68;0.68;;;;;;;1.35;57.37;93463.63;5069822;28;20111;-48
2021/04/08 04:52:21;;;;;;;0.30;0.30;;;;;;;1.43;55.98;93466.63;5069384;28;20032;-49
2021/04/08 04:54:46;;;;;;;0.45;0.45;;;;;;;1.60;56.65;93470.16;5069707;28;20028;-47
2021/04/08 04:57:12;;;;;;;0.57;0.57;;;;;;;1.74;57.54;93466.47;5069471;28;20607;-47
2021/04/08 04:59:37;;;;;;;0.30;0.30;;;;;;;1.78;56.28;93450.66;5069447;28;20044;-46
2021/04/08 05:02:03;;;;;;;0.75;0.40;;;;;;;1.89;55.13;93469.72;5069371;28;20051;-46
2021/04/08 05:04:28;;;;;;;0.32;0.32;;;;;;;1.95;56.03;93477.91;5069029;28;20558;-44
2021/04/08 05:06:54;;;;;;;1.15;1.15;;;;;;;1.98;55.16;93466.03;5069363;28;20035;-45
2021/04/08 05:09:19;;;;;;;1.48;1.02;;;;;;;1.80;55.02;93469.22;5069188;28;20067;-45
2021/04/08 05:11:44;;;;;;;0.43;0.43;;;;;;;1.97;55.63;93473.44;5069316;28;20486;-43
2021/04/08 05:14:10;;;;;;;0.80;0.80;;;;;;;2.09;54.07;93474.22;5088424;28;20503;-43
2021/04/08 05:16:35;;;;;;;0.30;0.30;;;;;;;2.06;54.91;93475.19;5072283;28;20253;-43
2021/04/08 05:19:01;;;;;;;0.75;0.75;;;;;;;2.09;55.35;93474.97;5069802;28;20033;-45
2021/04/08 05:21:26;;;;;;;0.40;0.40;;;;;;;2.14;54.33;93485.09;5069458;28;20536;-44
2021/04/08 05:23:52;;;;;;;0.32;0.32;;;;;;;2.10;55.21;93470.28;5068257;28;20020;-47
2021/04/08 05:26:17;;;;;;;0.38;0.38;;;;;;;2.25;54.46;93473.50;5081189;28;20032;-46
2021/04/08 05:28:42;;;;;;;1.00;1.00;;;;;;;2.18;55.59;93476.72;5088160;28;20511;-45
2021/04/08 05:31:08;;;;;;;0.57;0.57;;;;;;;2.26;54.57;93477.69;5069140;28;20477;-44
2021/04/08 05:33:34;;;;;;;0.30;0.30;;;;;;;2.43;54.24;93483.16;5069261;28;20154;-45
2021/04/08 05:35:59;;;;;;;0.50;0.50;;;;;;;2.40;54.22;93487.63;5069137;28;20103;-46
2021/04/08 05:38:25;;;;;;;2.72;1.77;;;;;;;2.69;53.76;93489.09;5069013;28;20161;-44
2021/04/08 05:40:50;;;;;;;0.98;0.60;;;;;;;2.70;54.34;93487.84;5068969;28;20040;-49
2021/04/08 05:43:17;;;;;;;0.30;0.30;;;;;;;2.80;53.69;93489.81;5069219;28;20032;-47
2021/04/08 05:45:42;;;;;;;0.32;0.32;;;;;;;2.89;52.67;93497.00;5069374;28;20110;-48
2021/04/08 05:48:08;;;;;;;0.20;0.20;;;;;;;2.80;52.22;93508.16;5084931;28;20492;-45
2021/04/08 05:50:33;;;;;;;0.60;0.60;;;;;;;2.91;53.32;93502.69;5089137;28;20024;-45
2021/04/08 05:52:58;;;;;;;1.75;0.82;;;;;;;2.97;52.85;93506.91;5088178;28;20036;-46
2021/04/08 05:55:24;;;;;;;0.60;0.60;;;;;;;3.12;53.26;93514.09;5088650;28;20510;-44
2021/04/08 05:57:49;;;;;;;1.23;1.17;;;;;;;3.32;50.57;93519.97;5088962;28;20019;-44
2021/04/08 06:00:15;;;;;;;2.53;1.85;;;;;;;3.33;49.76;93512.53;5087933;28;20416;-45
2021/04/08 06:02:41;;;;;;;0.68;0.68;;;;;;;3.19;49.72;93494.47;5088039;28;20055;-46
2021/04/08 06:05:08;;;;;;;2.17;1.90;;;;;;;3.55;49.23;93520.66;5088277;28;20036;-43
2021/04/08 06:07:33;;;;;;;2.88;2.22;;;;;;;3.69;51.25;93516.88;5088665;28;20020;-46
2021/04/08 06:09:59;;;;;;;1.38;1.30;;;;;;;4.00;48.81;93515.75;5088503;28;20024;-45
2021/04/08 06:12:24;;;;;;;2.05;1.83;;;;;;;4.17;47.44;93522.63;5088554;28;20024;-46
2021/04/08 06:14:51;;;;;;;1.25;1.15;;;;;;;4.15;46.92;93522.38;5088637;28;20039;-50
2021/04/08 06:17:16;;;;;;;0.25;0.25;;;;;;;4.29;47.62;93534.22;5090490;28;20237;-49
2021/04/08 06:19:43;;;;;;;0.75;0.75;;;;;;;4.12;47.69;93520.66;5092059;28;20020;-48
2021/04/08 06:22:09;;;;;;;0.45;0.45;;;;;;;4.39;47.92;93527.22;5091995;28;20488;-48
2021/04/08 06:24:35;;;;;;;1.75;1.65;;;;;;;4.30;45.27;93543.91;5092672;28;20024;-49
2021/04/08 06:27:00;;;;;;;0.25;0.25;;;;;;;4.30;46.67;93544.66;5092223;28;20027;-48
2021/04/08 06:29:26;;;;;;;1.85;1.00;;;;;;;4.04;46.67;93549.75;5092175;28;20043;-50
2021/04/08 06:31:51;;;;;;;0.20;0.20;;;;;;;4.04;46.72;93555.22;5092474;28;20447;-47
2021/04/08 06:34:17;;;;;;;0.70;0.70;;;;;;;4.02;46.63;93546.78;5092049;28;20051;-49
2021/04/08 06:36:42;;;;;;;0.50;0.50;;;;;;;4.42;47.20;93558.97;5091938;28;20136;-46
2021/04/08 06:39:08;;;;;;;1.77;1.17;;;;;;;4.75;46.41;93564.25;5092202;28;20024;-45
2021/04/08 06:41:38;;;;;;;0.68;0.68;;;;;;;5.17;44.62;93551.97;5091865;28;20472;-46
2021/04/08 06:44:06;;;;;;;0.20;0.20;;;;;;;5.75;43.90;93552.38;5071782;28;20568;-46
2021/04/08 06:46:37;;;;;;;0.20;0.20;;;;;;;5.89;43.56;93546.50;5072474;28;20109;-47
2021/04/08 06:49:34;;;;;;;0.57;0.57;;;;;;;6.35;42.91;93561.16;5088866;28;20020;-46
2021/04/08 06:51:59;;;;;;;0.43;0.43;;;;;;;6.82;41.86;93565.00;5089558;28;20028;-46
2021/04/08 06:54:26;;;;;;;5.03;1.67;;;;;;;7.09;39.96;93558.31;5088349;28;20131;-44
2021/04/08 06:56:52;;;;;;;0.68;0.47;;;;;;;7.87;39.49;93570.72;5090128;28;20032;-45
2021/04/08 06:59:18;;;;;;;0.50;0.50;;;;;;;8.37;37.04;93574.00;5090036;28;20032;-47
2021/04/08 07:01:44;;;;;;;2.75;1.67;;;;;;;8.33;36.22;93581.09;5088588;28;20046;-48
2021/04/08 07:04:11;;;;;;;0.20;0.20;;;;;;;7.86;37.25;93580.97;5088867;28;20054;-48
2021/04/08 07:06:36;;;;;;;0.40;0.40;;;;;;;7.41;38.74;93580.25;5089868;28;20032;-47
2021/04/08 07:09:04;;;;;;;1.55;1.45;;;;;;;6.97;40.01;93581.00;5089426;28;20785;-48
2021/04/08 07:11:30;;;;;;;0.70;0.70;;;;;;;7.03;40.12;93585.13;5088958;28;20028;-47
2021/04/08 07:13:55;;;;;;;0.73;0.73;;;;;;;6.81;39.27;93588.94;5086108;28;20035;-47
2021/04/08 07:16:21;;;;;;;0.73;0.50;;;;;;;6.63;38.30;93581.47;5075889;28;20035;-47
2021/04/08 07:18:47;;;;;;;0.93;0.93;;;;;;;6.22;41.23;93580.25;5088440;28;20074;-47
2021/04/08 07:21:12;;;;;;;0.80;0.75;;;;;;;6.27;40.54;93565.75;5088222;28;20097;-47
2021/04/08 07:23:38;;;;;;;0.52;0.52;;;;;;;7.04;40.86;93585.88;5078741;28;20084;-51
2021/04/08 07:26:07;;;;;;;0.30;0.30;;;;;;;7.07;40.08;93593.06;5088999;28;20106;-50
2021/04/08 07:28:38;;;;;;;0.70;0.70;;;;;;;6.82;40.13;93604.13;5089182;28;20031;-47
2021/04/08 07:31:30;;;;;;;0.30;0.30;;;;;;;6.72;41.31;93611.28;5086159;28;20092;-47
2021/04/08 07:33:58;;;;;;;1.33;1.25;;;;;;;6.61;41.60;93613.41;5083468;28;20119;-45
2021/04/08 07:36:37;;;;;;;0.93;0.88;;;;;;;6.63;41.95;93608.91;5088147;28;20509;-46
2021/04/08 07:39:05;;;;;;;0.60;0.40;;;;;;;6.41;40.63;93600.22;5083508;28;20020;-44
2021/04/08 07:41:35;;;;;;;0.55;0.55;;;;;;;6.63;40.41;93619.88;5084455;28;20046;-45
2021/04/08 07:44:07;;;;;;;0.55;0.55;;;;;;;6.47;40.28;93622.84;5086071;28;20021;-47
2021/04/08 07:46:46;;;;;;;0.52;0.52;;;;;;;6.43;36.32;93622.38;5079695;28;20702;-47
2021/04/08 07:49:32;;;;;;;1.80;1.70;;;;;;;6.67;39.69;93627.81;5085220;28;20416;-45
2021/04/08 07:52:14;;;;;;;1.15;1.10;;;;;;;7.32;37.63;93630.84;5068529;28;20044;-47
2021/04/08 07:54:40;;;;;;;0.28;0.28;;;;;;;7.76;37.45;93623.13;5068360;28;20066;-47
2021/04/08 07:57:06;;;;;;;0.38;0.38;;;;;;;7.78;35.71;93621.34;5068417;28;20024;-46
2021/04/08 07:59:31;;;;;;;0.57;0.57;;;;;;;7.42;38.63;93631.19;5068240;28;20029;-46
2021/04/08 08:02:02;;;;;;;0.50;0.50;;;;;;;7.13;36.86;93643.13;5066956;28;20779;-46
2021/04/08 08:04:28;;;;;;;0.43;0.43;;;;;;;6.90;38.01;93648.19;5068207;28;20025;-46
2021/04/08 08:06:55;;;;;;;0.32;0.32;;;;;;;6.65;40.12;93641.28;5067368;28;20016;-45
2021/04/08 08:09:22;;;;;;;1.17;1.15;;;;;;;6.21;39.40;93641.84;5067889;28;20020;-46
2021/04/08 08:11:49;;;;;;;0.38;0.38;;;;;;;6.10;39.06;93651.69;5068080;28;20425;-46
2021/04/08 08:14:15;;;;;;;0.38;0.38;;;;;;;6.07;38.74;93655.44;5072859;28;20024;-46
2021/04/08 08:16:41;;;;;;;1.85;1.10;;;;;;;6.25;39.07;93656.00;5088667;28;20059;-47
2021/04/08 08:19:06;;;;;;;1.08;1.05;;;;;;;6.23;37.91;93653.03;5088379;28;20491;-45
2021/04/08 08:21:39;;;;;;;0.20;0.20;;;;;;;5.70;39.18;93643.56;5087144;28;20492;-45
2021/04/08 08:24:08;;;;;;;0.40;0.40;;;;;;;5.80;39.95;93664.66;5077362;28;20032;-44
2021/04/08 08:26:35;;;;;;;0.30;0.30;;;;;;;6.21;41.00;93661.78;5087768;28;20023;-44
2021/04/08 08:29:11;;;;;;;0.47;0.47;;;;;;;6.23;39.18;93661.25;5083690;28;20117;-44
2021/04/08 08:31:56;;;;;;;2.05;0.60;;;;;;;6.43;39.58;93669.00;5067296;28;20967;-45
2021/04/08 08:34:22;;;;;;;0.63;0.63;;;;;;;6.26;40.13;93673.94;5067659;28;20040;-46
2021/04/08 08:36:58;;;;;;;0.98;0.52;;;;;;;6.02;38.30;93669.94;5067855;28;20029;-44
2021/04/08 08:39:29;;;;;;;0.50;0.50;;;;;;;6.28;38.90;93672.16;5078581;28;20019;-46
2021/04/08 08:41:56;;;;;;;1.15;1.10;;;;;;;6.36;39.10;93672.31;5083275;28;20067;-51
2021/04/08 08:44:22;;;;;;;0.52;0.52;;;;;;;7.38;38.85;93675.47;5071548;28;20085;-48
2021/04/08 08:46:59;;;;;;;1.45;0.57;;;;;;;8.88;34.99;93670.75;5066535;28;20032;-57
2021/04/08 08:49:46;;;;;;;0.30;0.30;;;;;;;10.59;30.74;93668.66;5073753;28;20039;-52
2021/04/08 08:52:23;;;;;;;0.65;0.65;;;;;;;11.40;31.94;93652.25;5070227;28;20060;-56
2021/04/08 08:54:50;;;;;;;0.82;0.82;;;;;;;11.07;30.77;93666.31;5073188;28;20036;-48
2021/04/08 08:57:17;;;;;;;0.40;0.40;;;;;;;10.95;29.84;93662.41;5086129;28;20040;-51
2021/04/08 08:59:44;;;;;;;5.78;1.38;;;;;;;10.15;31.03;93674.63;5086315;28;20085;-49
2021/04/08 09:02:10;;;;;;;0.30;0.30;;;;;;;10.02;33.27;93671.91;5081565;28;20056;-48
2021/04/08 09:04:36;;;;;;;0.30;0.30;;;;;;;9.57;32.54;93675.75;5067569;28;20054;-49
2021/04/08 09:07:05;;;;;;;0.28;0.28;;;;;;;8.81;33.01;93678.94;5067425;28;20066;-49
2021/04/08 09:09:31;;;;;;;0.77;0.77;;;;;;;8.34;33.63;93673.34;5073395;28;20031;-46
2021/04/08 09:12:02;;;;;;;1.02;0.98;;;;;;;8.22;34.81;93678.28;5077421;28;20115;-51
2021/04/08 09:14:28;;;;;;;0.55;0.55;;;;;;;8.54;35.31;93678.22;5075248;28;20036;-47
2021/04/08 09:16:54;;;;;;;0.35;0.35;;;;;;;8.33;34.27;93685.63;5086313;28;20027;-53
2021/04/08 09:19:27;;;;;;;0.40;0.40;;;;;;;8.48;34.69;93680.34;5086830;28;20797;-50
2021/04/08 09:21:55;;;;;;;0.88;0.88;;;;;;;9.10;33.83;93688.81;5086608;28;20785;-52
2021/04/08 09:24:39;;;;;;;1.08;1.02;;;;;;;8.74;33.36;93676.81;5085530;28;20112;-51
2021/04/08 09:27:06;;;;;;;0.50;0.50;;;;;;;8.27;35.90;93680.22;5084352;28;20089;-51
2021/04/08 09:29:40;;;;;;;0.30;0.30;;;;;;;7.93;36.46;93681.31;5085829;28;20504;-48
2021/04/08 09:32:28;;;;;;;0.82;0.82;;;;;;;7.33;36.16;93689.25;5084771;28;20020;-54
2021/04/08 09:35:09;;;;;;;0.20;0.20;;;;;;;6.95;35.26;93685.06;5087066;28;20056;-58
2021/04/08 09:37:46;;;;;;;0.35;0.35;;;;;;;6.85;36.00;93690.19;5087323;28;20032;-50
2021/04/08 09:40:21;;;;;;;0.20;0.20;;;;;;;6.84;37.07;93683.94;5086471;28;20032;-59
2021/04/08 09:42:58;;;;;;;0.75;0.75;;;;;;;8.44;34.70;93682.66;5086683;28;20036;-54
2021/04/08 09:45:24;;;;;;;0.60;0.60;;;;;;;9.65;33.08;93679.31;5087340;28;20024;-54
2021/04/08 09:48:09;;;;;;;0.35;0.35;;;;;;;11.01;31.47;93682.31;5087330;28;20075;-56
2021/04/08 09:50:56;;;;;;;1.75;1.23;;;;;;;12.59;28.21;93679.81;5086743;28;20024;-52
2021/04/08 09:53:30;;;;;;;0.38;0.38;;;;;;;13.57;27.59;93681.53;5090845;28;20097;-51
2021/04/08 09:55:59;;;;;;;0.90;0.90;;;;;;;13.06;25.45;93651.44;5089554;28;20715;-50
2021/04/08 09:58:27;;;;;;;0.98;0.50;;;;;;;14.06;25.62;93678.09;5089974;28;20050;-56
2021/04/08 10:00:54;;;;;;;1.65;0.70;;;;;;;14.92;23.01;93679.06;5082144;28;20556;-55
2021/04/08 10:03:46;;;;;;;0.45;0.45;;;;;;;15.63;21.46;93682.69;5088674;28;20036;-54
2021/04/08 10:06:22;;;;;;;6.63;1.92;;;;;;;16.00;20.06;93678.66;5082218;28;20032;-56
2021/04/08 10:08:48;;;;;;;0.20;0.20;;;;;;;16.34;21.43;93670.16;5087133;28;20036;-58
2021/04/08 10:11:15;;;;;;;0.38;0.38;;;;;;;16.54;20.12;93685.66;5086359;28;20481;-55
2021/04/08 10:13:41;;;;;;;0.30;0.30;;;;;;;15.71;19.00;93670.16;5089470;28;20117;-51
2021/04/08 10:16:12;;;;;;;0.25;0.25;;;;;;;12.71;20.43;93680.88;5089121;28;20020;-52
2021/04/08 10:18:39;;;;;;;1.33;0.75;;;;;;;9.89;25.59;93690.03;5086801;28;20135;-55
2021/04/08 10:21:26;;;;;;;0.47;0.47;;;;;;;9.02;27.07;93702.53;5089004;28;20025;-48
2021/04/08 10:23:53;;;;;;;0.30;0.30;;;;;;;10.77;28.53;93705.59;5083149;28;20060;-54
2021/04/08 10:26:22;;;;;;;0.70;0.70;;;;;;;12.04;26.33;93698.31;5089626;28;20031;-54
2021/04/08 10:28:51;;;;;;;0.68;0.68;;;;;;;13.40;26.25;93693.28;5088584;28;20020;-50
2021/04/08 10:31:18;;;;;;;1.60;0.40;;;;;;;14.41;24.85;93691.56;5086118;28;20027;-50
2021/04/08 10:33:54;;;;;;;1.27;0.52;;;;;;;15.64;21.25;93706.41;5085877;28;20074;-55
2021/04/08 10:36:30;;;;;;;0.22;0.22;;;;;;;15.75;18.58;93711.47;5085627;28;20510;-52
2021/04/08 10:39:14;;;;;;;3.00;0.57;;;;;;;14.75;19.37;93702.00;5085574;28;20515;-52
2021/04/08 10:41:56;;;;;;;1.33;1.00;;;;;;;12.66;22.91;93703.25;5086529;28;20624;-51
2021/04/08 10:44:28;;;;;;;0.98;0.98;;;;;;;10.84;23.10;93704.88;5086927;28;20089;-48
2021/04/08 10:46:55;;;;;;;0.50;0.50;;;;;;;11.03;26.34;93699.06;5088134;28;20036;-55
2021/04/08 10:49:27;;;;;;;1.17;1.17;;;;;;;10.83;24.48;93708.19;5078787;28;20028;-51
2021/04/08 10:51:54;;;;;;;10.43;0.45;;;;;;;10.92;26.29;93707.69;5089191;28;20020;-48
2021/04/08 10:54:25;;;;;;;1.60;0.80;;;;;;;10.71;25.23;93707.00;5075710;28;20024;-48
2021/04/08 10:56:51;;;;;;;0.57;0.57;;;;;;;11.57;23.40;93703.50;5077845;28;20024;-51
2021/04/08 10:59:18;;;;;;;0.70;0.70;;;;;;;12.47;25.65;93711.97;5083521;28;20024;-53
2021/04/08 11:01:44;;;;;;;1.05;1.02;;;;;;;13.87;22.73;93700.78;5087739;28;20043;-54
2021/04/08 11:04:09;;;;;;;0.82;0.82;;;;;;;14.38;21.34;93709.34;5089079;28;20119;-54
2021/04/08 11:06:35;;;;;;;0.38;0.28;;;;;;;14.64;19.59;93705.25;5085837;28;20020;-47
2021/04/08 11:09:00;;;;;;;0.38;0.38;;;;;;;14.05;20.87;93701.63;5084573;28;20024;-46
2021/04/08 11:11:26;;;;;;;0.55;0.40;;;;;;;14.35;22.38;93704.19;5087630;28;20020;-48
2021/04/08 11:13:51;;;;;;;0.25;0.20;;;;;;;13.94;20.81;93713.91;5088458;28;20649;-50
2021/04/08 11:16:17;;;;;;;2.65;0.63;;;;;;;13.33;22.00;93709.94;5088018;28;20035;-51
2021/04/08 11:18:42;;;;;;;0.30;0.30;;;;;;;13.44;22.67;93713.03;5084086;28;20583;-51
2021/04/08 11:21:08;;;;;;;0.43;0.43;;;;;;;13.39;22.12;93711.22;5081349;28;20099;-54
2021/04/08 11:23:33;;;;;;;0.32;0.32;;;;;;;13.59;24.04;93710.19;5087248;28;20095;-51
2021/04/08 11:26:03;;;;;;;0.43;0.43;;;;;;;13.38;22.46;93706.22;5078723;28;20035;-49
2021/04/08 11:28:29;;;;;;;0.32;0.32;;;;;;;14.00;21.43;93713.66;5086186;28;20100;-50
2021/04/08 11:30:54;;;;;;;0.30;0.30;;;;;;;14.40;20.00;93708.81;5081791;28;20555;-48
2021/04/08 11:33:21;;;;;;;1.70;1.17;;;;;;;14.42;22.29;93706.19;5087415;28;20151;-53
2021/04/08 11:35:46;;;;;;;0.30;0.30;;;;;;;13.02;23.84;93703.72;5087189;28;20036;-55
2021/04/08 11:38:23;;;;;;;0.75;0.75;;;;;;;12.15;22.58;93715.25;5087347;28;20054;-47
2021/04/08 11:41:07;;;;;;;0.63;0.40;;;;;;;10.42;21.63;93715.28;5086472;28;20032;-50
2021/04/08 11:43:34;;;;;;;0.20;0.20;;;;;;;9.66;22.17;93724.16;5086806;28;20020;-48
2021/04/08 11:46:04;;;;;;;0.30;0.30;;;;;;;8.99;24.48;93719.34;5076642;28;20028;-52
2021/04/08 11:48:40;;;;;;;0.38;0.38;;;;;;;8.58;24.22;93719.16;5087135;28;20016;-51